sensor_id;sensor_type;location;lat;lon;timestamp;pressure;altitude;pressure_sealevel;temperature;humidity
47374;BME280;33123;50.118;10.272;2023-03-20T00:00:40;97809.69;;;11.28;74.53
47374;BME280;33123;50.118;10.272;2023-03-20T00:03:09;97806.47;;;11.26;74.62
47374;BME280;33123;50.118;10.272;2023-03-20T00:05:38;97801.22;;;11.26;74.61
47374;BME280;33123;50.118;10.272;2023-03-20T00:08:05;97805.69;;;11.25;74.27
47374;BME280;33123;50.118;10.272;2023-03-20T00:10:34;97807.00;;;11.23;74.24
47374;BME280;33123;50.118;10.272;2023-03-20T00:13:02;97805.41;;;11.22;74.16
47374;BME280;33123;50.118;10.272;2023-03-20T00:15:33;97809.06;;;11.21;74.64
47374;BME280;33123;50.118;10.272;2023-03-20T00:18:01;97806.44;;;11.21;74.57
47374;BME280;33123;50.118;10.272;2023-03-20T00:20:27;97803.78;;;11.21;74.55
47374;BME280;33123;50.118;10.272;2023-03-20T00:22:55;97806.19;;;11.22;74.94
47374;BME280;33123;50.118;10.272;2023-03-20T00:25:23;97802.78;;;11.22;75.04
47374;BME280;33123;50.118;10.272;2023-03-20T00:27:51;97808.84;;;11.22;74.74
47374;BME280;33123;50.118;10.272;2023-03-20T00:30:21;97806.19;;;11.22;74.67
47374;BME280;33123;50.118;10.272;2023-03-20T00:32:49;97808.84;;;11.22;74.48
47374;BME280;33123;50.118;10.272;2023-03-20T00:35:21;97807.78;;;11.23;74.67
47374;BME280;33123;50.118;10.272;2023-03-20T00:37:50;97791.59;;;11.15;74.38
47374;BME280;33123;50.118;10.272;2023-03-20T00:40:18;97809.84;;;11.21;74.25
47374;BME280;33123;50.118;10.272;2023-03-20T00:42:47;97809.06;;;11.21;74.41
47374;BME280;33123;50.118;10.272;2023-03-20T00:45:17;97804.59;;;11.21;74.68
47374;BME280;33123;50.118;10.272;2023-03-20T00:47:47;97802.72;;;11.17;75.27
47374;BME280;33123;50.118;10.272;2023-03-20T00:50:18;97813.78;;;11.19;75.50
47374;BME280;33123;50.118;10.272;2023-03-20T00:52:47;97812.22;;;11.18;75.58
47374;BME280;33123;50.118;10.272;2023-03-20T00:55:14;97810.06;;;11.15;75.44
47374;BME280;33123;50.118;10.272;2023-03-20T00:57:45;97814.28;;;11.16;75.50
47374;BME280;33123;50.118;10.272;2023-03-20T01:00:32;97810.38;;;11.18;75.42
47374;BME280;33123;50.118;10.272;2023-03-20T01:03:01;97799.22;;;11.11;75.19
47374;BME280;33123;50.118;10.272;2023-03-20T01:05:30;97817.22;;;11.19;74.96
47374;BME280;33123;50.118;10.272;2023-03-20T01:07:57;97818.53;;;11.17;74.98
47374;BME280;33123;50.118;10.272;2023-03-20T01:10:27;97821.72;;;11.19;75.11
47374;BME280;33123;50.118;10.272;2023-03-20T01:12:57;97815.31;;;11.15;74.87
47374;BME280;33123;50.118;10.272;2023-03-20T01:15:29;97822.50;;;11.19;74.95
47374;BME280;33123;50.118;10.272;2023-03-20T01:17:57;97819.06;;;11.19;74.95
47374;BME280;33123;50.118;10.272;2023-03-20T01:20:26;97821.25;;;11.22;74.72
47374;BME280;33123;50.118;10.272;2023-03-20T01:22:53;97822.50;;;11.19;74.83
47374;BME280;33123;50.118;10.272;2023-03-20T01:25:20;97823.31;;;11.20;74.96
47374;BME280;33123;50.118;10.272;2023-03-20T01:27:49;97820.66;;;11.20;74.65
47374;BME280;33123;50.118;10.272;2023-03-20T01:30:20;97819.63;;;11.21;74.70
47374;BME280;33123;50.118;10.272;2023-03-20T01:32:47;97821.72;;;11.19;74.75
47374;BME280;33123;50.118;10.272;2023-03-20T01:35:16;97823.75;;;11.12;74.97
47374;BME280;33123;50.118;10.272;2023-03-20T01:37:44;97835.63;;;11.14;74.70
47374;BME280;33123;50.118;10.272;2023-03-20T01:40:30;97842.22;;;11.12;75.10
47374;BME280;33123;50.118;10.272;2023-03-20T01:42:58;97845.06;;;11.10;74.79
47374;BME280;33123;50.118;10.272;2023-03-20T01:45:30;97842.69;;;11.08;74.75
47374;BME280;33123;50.118;10.272;2023-03-20T01:47:58;97842.69;;;11.08;74.72
47374;BME280;33123;50.118;10.272;2023-03-20T01:50:27;97841.09;;;11.07;74.80
47374;BME280;33123;50.118;10.272;2023-03-20T01:53:05;97825.94;;;10.98;74.75
47374;BME280;33123;50.118;10.272;2023-03-20T01:55:34;97833.63;;;10.99;75.18
47374;BME280;33123;50.118;10.272;2023-03-20T01:58:06;97844.28;;;11.09;74.91
47374;BME280;33123;50.118;10.272;2023-03-20T02:00:36;97836.31;;;11.04;75.04
47374;BME280;33123;50.118;10.272;2023-03-20T02:03:05;97846.84;;;11.04;75.43
47374;BME280;33123;50.118;10.272;2023-03-20T02:05:34;97841.56;;;11.04;75.19
47374;BME280;33123;50.118;10.272;2023-03-20T02:08:10;97837.34;;;11.03;75.33
47374;BME280;33123;50.118;10.272;2023-03-20T02:10:40;97844.47;;;11.03;75.22
47374;BME280;33123;50.118;10.272;2023-03-20T02:13:07;97844.47;;;11.03;75.26
47374;BME280;33123;50.118;10.272;2023-03-20T02:16:03;97841.56;;;11.04;74.88
47374;BME280;33123;50.118;10.272;2023-03-20T02:18:30;97842.41;;;11.05;74.83
47374;BME280;33123;50.118;10.272;2023-03-20T02:21:27;97850.00;;;11.01;74.99
47374;BME280;33123;50.118;10.272;2023-03-20T02:24:21;97843.66;;;11.02;75.28
47374;BME280;33123;50.118;10.272;2023-03-20T02:26:56;97839.75;;;11.05;75.00
47374;BME280;33123;50.118;10.272;2023-03-20T02:29:57;97846.31;;;11.02;75.08
47374;BME280;33123;50.118;10.272;2023-03-20T02:35:59;97836.81;;;11.01;74.71
47374;BME280;33123;50.118;10.272;2023-03-20T02:38:47;97830.00;;;11.05;74.69
47374;BME280;33123;50.118;10.272;2023-03-20T02:41:24;97828.97;;;11.06;74.55
47374;BME280;33123;50.118;10.272;2023-03-20T02:44:00;97835.81;;;11.07;74.65
47374;BME280;33123;50.118;10.272;2023-03-20T02:46:35;97835.81;;;11.07;74.84
47374;BME280;33123;50.118;10.272;2023-03-20T02:49:12;97835.81;;;11.07;75.25
47374;BME280;33123;50.118;10.272;2023-03-20T02:51:46;97836.63;;;11.08;75.40
47374;BME280;33123;50.118;10.272;2023-03-20T02:54:24;97830.28;;;11.09;74.98
47374;BME280;33123;50.118;10.272;2023-03-20T02:56:59;97830.06;;;11.10;74.92
47374;BME280;33123;50.118;10.272;2023-03-20T02:59:33;97817.56;;;11.01;75.06
47374;BME280;33123;50.118;10.272;2023-03-20T03:02:03;97833.25;;;11.13;75.08
47374;BME280;33123;50.118;10.272;2023-03-20T03:04:34;97830.06;;;11.10;74.83
47374;BME280;33123;50.118;10.272;2023-03-20T03:07:02;97836.94;;;11.12;74.81
47374;BME280;33123;50.118;10.272;2023-03-20T03:09:35;97836.94;;;11.12;74.70
47374;BME280;33123;50.118;10.272;2023-03-20T03:12:08;97815.66;;;10.96;74.77
47374;BME280;33123;50.118;10.272;2023-03-20T03:14:37;97832.06;;;11.03;74.54
47374;BME280;33123;50.118;10.272;2023-03-20T03:17:06;97820.44;;;10.99;74.51
47374;BME280;33123;50.118;10.272;2023-03-20T03:19:36;97837.41;;;11.08;74.71
47374;BME280;33123;50.118;10.272;2023-03-20T03:22:04;97835.22;;;11.00;74.87
47374;BME280;33123;50.118;10.272;2023-03-20T03:24:35;97842.34;;;11.00;75.26
47374;BME280;33123;50.118;10.272;2023-03-20T03:27:06;97845.19;;;10.98;75.43
47374;BME280;33123;50.118;10.272;2023-03-20T03:29:38;97848.53;;;10.89;75.85
47374;BME280;33123;50.118;10.272;2023-03-20T03:32:18;97843.91;;;10.79;76.10
47374;BME280;33123;50.118;10.272;2023-03-20T03:34:46;97847.34;;;10.79;75.93
47374;BME280;33123;50.118;10.272;2023-03-20T03:37:17;97850.75;;;10.80;76.24
47374;BME280;33123;50.118;10.272;2023-03-20T03:39:50;97853.88;;;10.77;76.05
47374;BME280;33123;50.118;10.272;2023-03-20T03:42:23;97851.19;;;10.72;76.20
47374;BME280;33123;50.118;10.272;2023-03-20T03:44:57;97856.69;;;10.70;76.43
47374;BME280;33123;50.118;10.272;2023-03-20T03:47:26;97861.41;;;10.68;76.37
47374;BME280;33123;50.118;10.272;2023-03-20T03:49:58;97864.38;;;10.72;76.13
47374;BME280;33123;50.118;10.272;2023-03-20T03:52:27;97853.00;;;10.71;76.03
47374;BME280;33123;50.118;10.272;2023-03-20T03:55:00;97849.56;;;10.71;76.19
47374;BME280;33123;50.118;10.272;2023-03-20T03:57:31;97853.25;;;10.70;76.04
47374;BME280;33123;50.118;10.272;2023-03-20T04:00:02;97849.81;;;10.69;76.16
47374;BME280;33123;50.118;10.272;2023-03-20T04:02:31;97850.63;;;10.70;75.97
47374;BME280;33123;50.118;10.272;2023-03-20T04:05:00;97854.63;;;10.72;75.87
47374;BME280;33123;50.118;10.272;2023-03-20T04:07:28;97855.41;;;10.73;75.69
47374;BME280;33123;50.118;10.272;2023-03-20T04:09:57;97868.09;;;10.76;75.72
47374;BME280;33123;50.118;10.272;2023-03-20T04:12:35;97868.34;;;10.74;75.69
47374;BME280;33123;50.118;10.272;2023-03-20T04:15:03;97868.59;;;10.73;75.52
47374;BME280;33123;50.118;10.272;2023-03-20T04:17:30;97866.44;;;10.70;75.64
47374;BME280;33123;50.118;10.272;2023-03-20T04:19:57;97871.72;;;10.70;75.43
47374;BME280;33123;50.118;10.272;2023-03-20T04:22:23;97873.00;;;10.67;75.41
47374;BME280;33123;50.118;10.272;2023-03-20T04:24:50;97869.31;;;10.68;75.61
47374;BME280;33123;50.118;10.272;2023-03-20T04:27:18;97875.38;;;10.69;75.75
47374;BME280;33123;50.118;10.272;2023-03-20T04:29:45;97882.25;;;10.70;75.36
47374;BME280;33123;50.118;10.272;2023-03-20T04:32:12;97878.81;;;10.69;75.41
47374;BME280;33123;50.118;10.272;2023-03-20T04:34:38;97888.03;;;10.67;75.62
47374;BME280;33123;50.118;10.272;2023-03-20T04:37:05;97881.09;;;10.61;75.93
47374;BME280;33123;50.118;10.272;2023-03-20T04:39:33;97886.91;;;10.63;75.97
47374;BME280;33123;50.118;10.272;2023-03-20T04:41:59;97879.78;;;10.63;75.88
47374;BME280;33123;50.118;10.272;2023-03-20T04:44:27;97885.06;;;10.63;75.84
47374;BME280;33123;50.118;10.272;2023-03-20T04:46:54;97888.50;;;10.64;76.11
47374;BME280;33123;50.118;10.272;2023-03-20T04:49:21;97811.53;;;10.11;76.02
47374;BME280;33123;50.118;10.272;2023-03-20T04:51:56;97880.84;;;10.62;76.26
47374;BME280;33123;50.118;10.272;2023-03-20T04:54:23;97881.63;;;10.63;75.98
47374;BME280;33123;50.118;10.272;2023-03-20T04:56:50;97882.91;;;10.60;76.04
47374;BME280;33123;50.118;10.272;2023-03-20T04:59:17;97875.81;;;10.61;76.05
47374;BME280;33123;50.118;10.272;2023-03-20T05:01:45;97878.44;;;10.61;76.02
47374;BME280;33123;50.118;10.272;2023-03-20T05:04:12;97884.97;;;10.58;75.95
47374;BME280;33123;50.118;10.272;2023-03-20T05:06:38;97879.47;;;10.60;75.87
47374;BME280;33123;50.118;10.272;2023-03-20T05:09:05;97883.22;;;10.64;75.83
47374;BME280;33123;50.118;10.272;2023-03-20T05:11:32;97836.06;;;10.28;75.77
47374;BME280;33123;50.118;10.272;2023-03-20T05:13:58;97889.22;;;10.59;75.96
47374;BME280;33123;50.118;10.272;2023-03-20T05:16:25;97904.66;;;10.50;76.12
47374;BME280;33123;50.118;10.272;2023-03-20T05:18:53;97903.06;;;10.49;76.30
47374;BME280;33123;50.118;10.272;2023-03-20T05:21:20;97899.19;;;10.57;76.37
47374;BME280;33123;50.118;10.272;2023-03-20T05:23:46;97903.69;;;10.56;76.21
47374;BME280;33123;50.118;10.272;2023-03-20T05:26:13;97904.47;;;10.57;76.16
47374;BME280;33123;50.118;10.272;2023-03-20T05:32:21;97903.59;;;10.51;76.71
47374;BME280;33123;50.118;10.272;2023-03-20T05:34:49;97910.00;;;10.55;76.49
47374;BME280;33123;50.118;10.272;2023-03-20T05:37:15;97908.94;;;10.56;76.25
47374;BME280;33123;50.118;10.272;2023-03-20T05:39:42;97906.88;;;10.58;76.10
47374;BME280;33123;50.118;10.272;2023-03-20T05:42:08;97909.50;;;10.58;76.26
47374;BME280;33123;50.118;10.272;2023-03-20T05:44:35;97888.50;;;10.47;76.03
47374;BME280;33123;50.118;10.272;2023-03-20T05:47:01;97914.59;;;10.65;76.07
47374;BME280;33123;50.118;10.272;2023-03-20T05:49:28;97914.13;;;10.68;76.16
47374;BME280;33123;50.118;10.272;2023-03-20T05:51:56;97914.84;;;10.64;75.89
47374;BME280;33123;50.118;10.272;2023-03-20T05:54:23;97920.13;;;10.64;76.13
47374;BME280;33123;50.118;10.272;2023-03-20T05:56:49;97923.00;;;10.62;76.46
47374;BME280;33123;50.118;10.272;2023-03-20T05:59:16;97919.31;;;10.63;76.25
47374;BME280;33123;50.118;10.272;2023-03-20T06:01:42;97921.88;;;10.58;76.69
47374;BME280;33123;50.118;10.272;2023-03-20T06:04:09;97921.88;;;10.58;76.58
47374;BME280;33123;50.118;10.272;2023-03-20T06:06:36;97921.97;;;10.63;76.48
47374;BME280;33123;50.118;10.272;2023-03-20T06:09:04;97920.91;;;10.64;76.29
47374;BME280;33123;50.118;10.272;2023-03-20T06:11:31;97919.06;;;10.65;76.35
47374;BME280;33123;50.118;10.272;2023-03-20T06:13:58;97920.38;;;10.62;76.67
47374;BME280;33123;50.118;10.272;2023-03-20T06:16:25;97918.84;;;10.66;76.54
47374;BME280;33123;50.118;10.272;2023-03-20T06:18:52;97916.28;;;10.54;77.24
47374;BME280;33123;50.118;10.272;2023-03-20T06:21:18;97926.09;;;10.59;77.31
47374;BME280;33123;50.118;10.272;2023-03-20T06:23:45;97904.16;;;10.37;78.07
47374;BME280;33123;50.118;10.272;2023-03-20T06:26:13;97917.31;;;10.53;77.56
47374;BME280;33123;50.118;10.272;2023-03-20T06:28:39;97921.16;;;10.29;78.78
47374;BME280;33123;50.118;10.272;2023-03-20T06:31:06;97918.88;;;10.49;77.90
47374;BME280;33123;50.118;10.272;2023-03-20T06:33:34;97921.88;;;10.58;77.82
47374;BME280;33123;50.118;10.272;2023-03-20T06:36:02;97929.88;;;10.63;77.98
47374;BME280;33123;50.118;10.272;2023-03-20T06:38:29;97931.78;;;10.68;77.67
47374;BME280;33123;50.118;10.272;2023-03-20T06:40:56;97921.78;;;10.70;77.50
47374;BME280;33123;50.118;10.272;2023-03-20T06:43:23;97913.41;;;10.73;77.25
47374;BME280;33123;50.118;10.272;2023-03-20T06:45:50;97915.16;;;10.84;76.93
47374;BME280;33123;50.118;10.272;2023-03-20T06:48:17;97918.59;;;10.84;76.89
47374;BME280;33123;50.118;10.272;2023-03-20T06:50:46;97908.91;;;10.90;76.82
47374;BME280;33123;50.118;10.272;2023-03-20T06:53:13;97917.88;;;10.89;77.01
47374;BME280;33123;50.118;10.272;2023-03-20T06:55:41;97928.56;;;10.99;76.92
47374;BME280;33123;50.118;10.272;2023-03-20T06:58:08;97927.59;;;11.05;76.58
47374;BME280;33123;50.118;10.272;2023-03-20T07:00:35;97921.19;;;11.01;76.83
47374;BME280;33123;50.118;10.272;2023-03-20T07:03:03;97924.53;;;11.14;76.22
47374;BME280;33123;50.118;10.272;2023-03-20T07:05:29;97929.19;;;11.06;76.98
47374;BME280;33123;50.118;10.272;2023-03-20T07:07:56;97929.47;;;11.10;76.70
47374;BME280;33123;50.118;10.272;2023-03-20T07:10:24;97929.94;;;11.24;76.21
47374;BME280;33123;50.118;10.272;2023-03-20T07:12:50;97930.75;;;11.24;76.42
47374;BME280;33123;50.118;10.272;2023-03-20T07:15:17;97936.41;;;11.33;76.49
47374;BME280;33123;50.118;10.272;2023-03-20T07:17:45;97937.56;;;11.42;76.40
47374;BME280;33123;50.118;10.272;2023-03-20T07:23:52;97942.84;;;11.42;75.77
47374;BME280;33123;50.118;10.272;2023-03-20T07:26:19;97941.38;;;11.51;76.30
47374;BME280;33123;50.118;10.272;2023-03-20T07:28:46;97935.66;;;11.59;75.12
47374;BME280;33123;50.118;10.272;2023-03-20T07:31:18;97908.16;;;11.12;75.69
47374;BME280;33123;50.118;10.272;2023-03-20T07:33:47;97948.13;;;11.42;76.11
47374;BME280;33123;50.118;10.272;2023-03-20T07:36:14;97944.44;;;11.43;75.56
47374;BME280;33123;50.118;10.272;2023-03-20T07:38:40;97944.34;;;11.55;75.26
47374;BME280;33123;50.118;10.272;2023-03-20T07:41:07;97947.19;;;11.53;75.60
47374;BME280;33123;50.118;10.272;2023-03-20T07:43:33;97941.56;;;11.67;75.49
47374;BME280;33123;50.118;10.272;2023-03-20T07:46:01;97939.09;;;11.60;75.55
47374;BME280;33123;50.118;10.272;2023-03-20T07:48:28;97952.53;;;11.58;75.74
47374;BME280;33123;50.118;10.272;2023-03-20T07:50:56;97957.28;;;11.56;75.49
47374;BME280;33123;50.118;10.272;2023-03-20T07:53:23;97948.56;;;11.56;75.38
47374;BME280;33123;50.118;10.272;2023-03-20T07:55:49;97961.50;;;11.57;75.48
47374;BME280;33123;50.118;10.272;2023-03-20T07:58:16;97930.06;;;11.34;75.71
47374;BME280;33123;50.118;10.272;2023-03-20T08:00:45;97974.78;;;11.62;75.49
47374;BME280;33123;50.118;10.272;2023-03-20T08:03:12;97969.38;;;11.52;75.34
47374;BME280;33123;50.118;10.272;2023-03-20T08:05:39;97973.84;;;11.52;75.95
47374;BME280;33123;50.118;10.272;2023-03-20T08:08:07;97971.47;;;11.50;75.91
47374;BME280;33123;50.118;10.272;2023-03-20T08:10:37;97973.59;;;11.53;75.93
47374;BME280;33123;50.118;10.272;2023-03-20T08:13:03;97975.75;;;11.56;76.20
47374;BME280;33123;50.118;10.272;2023-03-20T08:15:30;97899.31;;;11.01;76.40
47374;BME280;33123;50.118;10.272;2023-03-20T08:17:56;97974.22;;;11.60;76.02
47374;BME280;33123;50.118;10.272;2023-03-20T08:20:23;97977.47;;;11.68;75.91
47374;BME280;33123;50.118;10.272;2023-03-20T08:22:50;97986.66;;;11.65;75.73
47374;BME280;33123;50.118;10.272;2023-03-20T08:25:19;97985.41;;;11.68;75.22
47374;BME280;33123;50.118;10.272;2023-03-20T08:27:45;97987.84;;;11.74;75.68
47374;BME280;33123;50.118;10.272;2023-03-20T08:30:12;97981.25;;;11.77;75.34
47374;BME280;33123;50.118;10.272;2023-03-20T08:32:39;97993.94;;;11.75;75.66
47374;BME280;33123;50.118;10.272;2023-03-20T08:35:07;97988.22;;;11.61;75.28
47374;BME280;33123;50.118;10.272;2023-03-20T08:37:36;97988.66;;;11.75;74.90
47374;BME280;33123;50.118;10.272;2023-03-20T08:40:04;97984.47;;;11.79;75.03
47374;BME280;33123;50.118;10.272;2023-03-20T08:45:42;97986.72;;;11.70;75.10
47374;BME280;33123;50.118;10.272;2023-03-20T08:48:09;97924.66;;;11.24;75.42
47374;BME280;33123;50.118;10.272;2023-03-20T08:50:36;97991.81;;;11.77;75.37
47374;BME280;33123;50.118;10.272;2023-03-20T08:53:03;97997.41;;;11.58;75.64
47374;BME280;33123;50.118;10.272;2023-03-20T08:55:30;97992.81;;;11.71;75.51
47374;BME280;33123;50.118;10.272;2023-03-20T08:57:57;97996.03;;;11.73;75.40
47374;BME280;33123;50.118;10.272;2023-03-20T09:00:24;97993.44;;;11.78;75.48
47374;BME280;33123;50.118;10.272;2023-03-20T09:02:53;97996.03;;;11.73;75.63
47374;BME280;33123;50.118;10.272;2023-03-20T09:05:20;97991.69;;;11.83;75.44
47374;BME280;33123;50.118;10.272;2023-03-20T09:07:46;97996.63;;;11.80;75.75
47374;BME280;33123;50.118;10.272;2023-03-20T09:10:14;98000.31;;;11.79;75.94
47374;BME280;33123;50.118;10.272;2023-03-20T09:12:40;97995.19;;;11.89;75.84
47374;BME280;33123;50.118;10.272;2023-03-20T09:15:07;97993.81;;;11.86;76.00
47374;BME280;33123;50.118;10.272;2023-03-20T09:17:34;97963.84;;;11.76;75.59
47374;BME280;33123;50.118;10.272;2023-03-20T09:20:03;97989.53;;;12.02;75.46
47374;BME280;33123;50.118;10.272;2023-03-20T09:22:32;97997.19;;;12.04;75.49
47374;BME280;33123;50.118;10.272;2023-03-20T09:24:58;97988.59;;;12.13;75.77
47374;BME280;33123;50.118;10.272;2023-03-20T09:27:25;97993.97;;;12.24;75.76
47374;BME280;33123;50.118;10.272;2023-03-20T09:29:52;97995.94;;;12.33;75.39
47374;BME280;33123;50.118;10.272;2023-03-20T09:32:18;97996.72;;;12.34;75.08
47374;BME280;33123;50.118;10.272;2023-03-20T09:34:46;98002.44;;;12.26;74.71
47374;BME280;33123;50.118;10.272;2023-03-20T09:37:14;98005.72;;;12.33;74.70
47374;BME280;33123;50.118;10.272;2023-03-20T09:39:40;98008.03;;;12.29;74.35
47374;BME280;33123;50.118;10.272;2023-03-20T09:42:16;98008.47;;;12.48;74.13
47374;BME280;33123;50.118;10.272;2023-03-20T09:44:52;98011.78;;;12.60;74.14
47374;BME280;33123;50.118;10.272;2023-03-20T09:47:29;98015.28;;;12.66;73.40
47374;BME280;33123;50.118;10.272;2023-03-20T09:50:07;98012.16;;;12.74;72.25
47374;BME280;33123;50.118;10.272;2023-03-20T09:52:41;98011.16;;;12.53;73.21
47374;BME280;33123;50.118;10.272;2023-03-20T09:55:11;98006.38;;;12.77;72.04
47374;BME280;33123;50.118;10.272;2023-03-20T09:57:41;98006.06;;;12.74;71.93
47374;BME280;33123;50.118;10.272;2023-03-20T10:00:12;98011.84;;;12.71;72.21
47374;BME280;33123;50.118;10.272;2023-03-20T10:02:50;98015.00;;;12.67;72.46
47374;BME280;33123;50.118;10.272;2023-03-20T10:05:21;98008.81;;;12.84;72.79
47374;BME280;33123;50.118;10.272;2023-03-20T10:07:51;98003.50;;;12.84;71.38
47374;BME280;33123;50.118;10.272;2023-03-20T10:10:22;98008.06;;;12.93;71.24
47374;BME280;33123;50.118;10.272;2023-03-20T10:12:55;98000.44;;;12.97;70.87
47374;BME280;33123;50.118;10.272;2023-03-20T10:15:37;98007.03;;;12.94;71.71
47374;BME280;33123;50.118;10.272;2023-03-20T10:18:15;98018.91;;;12.92;72.24
47374;BME280;33123;50.118;10.272;2023-03-20T10:20:49;98020.09;;;13.06;72.31
47374;BME280;33123;50.118;10.272;2023-03-20T10:23:25;98017.84;;;12.93;71.72
47374;BME280;33123;50.118;10.272;2023-03-20T10:25:55;98007.16;;;12.78;72.05
47374;BME280;33123;50.118;10.272;2023-03-20T10:28:30;98020.13;;;12.79;72.06
47374;BME280;33123;50.118;10.272;2023-03-20T10:30:59;98017.34;;;12.96;72.02
47374;BME280;33123;50.118;10.272;2023-03-20T10:33:39;98014.94;;;12.89;72.21
47374;BME280;33123;50.118;10.272;2023-03-20T10:36:22;98011.53;;;12.94;72.09
47374;BME280;33123;50.118;10.272;2023-03-20T10:39:00;98003.97;;;12.76;72.24
47374;BME280;33123;50.118;10.272;2023-03-20T10:41:34;98008.09;;;12.99;72.23
47374;BME280;33123;50.118;10.272;2023-03-20T10:44:04;98005.22;;;13.00;72.28
47374;BME280;33123;50.118;10.272;2023-03-20T10:46:40;98007.38;;;13.08;72.02
47374;BME280;33123;50.118;10.272;2023-03-20T10:49:12;97994.50;;;13.17;71.55
47374;BME280;33123;50.118;10.272;2023-03-20T10:51:45;98000.19;;;13.36;71.83
47374;BME280;33123;50.118;10.272;2023-03-20T10:54:21;97985.66;;;13.43;70.32
47374;BME280;33123;50.118;10.272;2023-03-20T10:56:51;98004.34;;;13.27;70.36
47374;BME280;33123;50.118;10.272;2023-03-20T10:59:23;98006.00;;;13.33;70.37
47374;BME280;33123;50.118;10.272;2023-03-20T11:01:51;97995.78;;;13.14;70.49
47374;BME280;33123;50.118;10.272;2023-03-20T11:04:18;97989.16;;;13.12;70.46
47374;BME280;33123;50.118;10.272;2023-03-20T11:06:51;97997.72;;;13.24;71.48
47374;BME280;33123;50.118;10.272;2023-03-20T11:09:24;98003.06;;;13.29;70.01
47374;BME280;33123;50.118;10.272;2023-03-20T11:11:56;98002.91;;;13.46;69.43
47374;BME280;33123;50.118;10.272;2023-03-20T11:14:26;98001.53;;;13.43;68.92
47374;BME280;33123;50.118;10.272;2023-03-20T11:16:54;97997.38;;;13.53;68.33
47374;BME280;33123;50.118;10.272;2023-03-20T11:19:23;98001.88;;;13.52;68.84
47374;BME280;33123;50.118;10.272;2023-03-20T11:21:52;98001.53;;;13.43;68.62
47374;BME280;33123;50.118;10.272;2023-03-20T11:24:27;97995.81;;;13.19;68.34
47374;BME280;33123;50.118;10.272;2023-03-20T11:27:05;97996.41;;;13.22;68.23
47374;BME280;33123;50.118;10.272;2023-03-20T11:29:34;97999.84;;;13.22;69.26
47374;BME280;33123;50.118;10.272;2023-03-20T11:32:06;97991.91;;;13.22;69.93
47374;BME280;33123;50.118;10.272;2023-03-20T11:34:36;97993.75;;;13.27;69.71
47374;BME280;33123;50.118;10.272;2023-03-20T11:37:12;97999.06;;;13.27;68.82
47374;BME280;33123;50.118;10.272;2023-03-20T11:39:56;97995.38;;;13.28;68.21
47374;BME280;33123;50.118;10.272;2023-03-20T11:42:25;97990.16;;;13.01;69.16
47374;BME280;33123;50.118;10.272;2023-03-20T11:45:00;97988.09;;;13.13;69.29
47374;BME280;33123;50.118;10.272;2023-03-20T11:47:30;97988.59;;;13.10;69.58
47374;BME280;33123;50.118;10.272;2023-03-20T11:49:59;97969.31;;;13.14;69.28
47374;BME280;33123;50.118;10.272;2023-03-20T11:52:28;97993.78;;;13.32;69.46
47374;BME280;33123;50.118;10.272;2023-03-20T11:55:00;97991.13;;;13.27;69.01
47374;BME280;33123;50.118;10.272;2023-03-20T11:57:32;97984.81;;;13.38;68.99
47374;BME280;33123;50.118;10.272;2023-03-20T12:00:15;97988.59;;;13.10;68.76
47374;BME280;33123;50.118;10.272;2023-03-20T12:02:42;97989.31;;;13.32;68.74
47374;BME280;33123;50.118;10.272;2023-03-20T12:05:34;97981.94;;;13.39;68.84
47374;BME280;33123;50.118;10.272;2023-03-20T12:08:06;97976.66;;;13.39;69.53
47374;BME280;33123;50.118;10.272;2023-03-20T12:10:40;97984.25;;;13.31;68.77
47374;BME280;33123;50.118;10.272;2023-03-20T12:13:12;97981.41;;;13.42;68.72
47374;BME280;33123;50.118;10.272;2023-03-20T12:15:43;97975.34;;;13.47;68.53
47374;BME280;33123;50.118;10.272;2023-03-20T12:18:15;97974.22;;;13.28;68.36
47374;BME280;33123;50.118;10.272;2023-03-20T12:20:53;97978.28;;;13.51;68.23
47374;BME280;33123;50.118;10.272;2023-03-20T12:23:30;97964.28;;;13.55;68.12
47374;BME280;33123;50.118;10.272;2023-03-20T12:26:02;97971.16;;;13.56;68.13
47374;BME280;33123;50.118;10.272;2023-03-20T12:28:37;97971.22;;;13.66;68.30
47374;BME280;33123;50.118;10.272;2023-03-20T12:31:16;97964.34;;;13.70;68.36
47374;BME280;33123;50.118;10.272;2023-03-20T12:33:49;97965.38;;;13.64;67.62
47374;BME280;33123;50.118;10.272;2023-03-20T12:36:24;97964.78;;;13.52;67.82
47374;BME280;33123;50.118;10.272;2023-03-20T12:38:54;97962.47;;;13.61;67.81
47374;BME280;33123;50.118;10.272;2023-03-20T12:41:25;97954.28;;;13.67;67.62
47374;BME280;33123;50.118;10.272;2023-03-20T12:44:12;97946.63;;;13.81;67.10
47374;BME280;33123;50.118;10.272;2023-03-20T12:46:43;97951.16;;;13.91;67.10
47374;BME280;33123;50.118;10.272;2023-03-20T12:49:19;97940.63;;;14.16;67.06
47374;BME280;33123;50.118;10.272;2023-03-20T12:51:56;97946.97;;;14.10;65.79
47374;BME280;33123;50.118;10.272;2023-03-20T12:54:36;97937.19;;;14.31;65.35
47374;BME280;33123;50.118;10.272;2023-03-20T12:57:16;97935.34;;;14.37;64.98
47374;BME280;33123;50.118;10.272;2023-03-20T13:00:02;97925.53;;;14.42;64.36
47374;BME280;33123;50.118;10.272;2023-03-20T13:02:40;97930.59;;;14.54;63.89
47374;BME280;33123;50.118;10.272;2023-03-20T13:05:19;97922.63;;;14.34;63.55
47374;BME280;33123;50.118;10.272;2023-03-20T13:08:00;97930.06;;;14.62;64.62
47374;BME280;33123;50.118;10.272;2023-03-20T13:10:33;97930.88;;;14.52;63.45
47374;BME280;33123;50.118;10.272;2023-03-20T13:13:13;97926.09;;;14.70;62.76
47374;BME280;33123;50.118;10.272;2023-03-20T13:16:01;97926.88;;;14.45;63.43
47374;BME280;33123;50.118;10.272;2023-03-20T13:18:43;97915.47;;;14.75;62.08
47374;BME280;33123;50.118;10.272;2023-03-20T13:21:17;97914.69;;;14.69;62.24